Time;durP1;ratioP1;P1;durP2;ratioP2;P2;SDS_P1;SDS_P2;PMS_P1;PMS_P2;Temp;Humidity;BMP_temperature;BMP_pressure;BME280_temperature;BME280_humidity;BME280_pressure;Samples;Min_cycle;Max_cycle;Signal;HPM_P1;HPM_P2
2022/08/15 00:05:14;;;;;;;5.45;4.28;;;;;;;25.88;63.88;100275.44;20959125;28;20060;-63
2022/08/15 00:15:38;;;;;;;6.97;4.57;;;;;;;25.94;64.20;100279.91;20969993;28;20496;-63
2022/08/15 00:26:05;;;;;;;6.63;4.90;;;;;;;25.65;64.64;100261.69;20955868;28;20470;-63
2022/08/15 00:36:48;;;;;;;6.50;4.57;;;;;;;25.57;64.77;100249.38;20958701;28;20429;-63
2022/08/15 00:47:18;;;;;;;9.43;4.45;;;;;;;25.61;64.59;100239.91;20958870;28;20090;-63
2022/08/15 00:57:45;;;;;;;7.65;4.80;;;;;;;25.51;63.99;100238.69;20956929;28;20052;-63
2022/08/15 01:08:26;;;;;;;6.63;4.97;;;;;;;25.34;63.98;100232.16;20984193;28;20068;-63
2022/08/15 01:19:00;;;;;;;8.10;4.88;;;;;;;25.16;65.97;100233.81;20986925;28;20040;-63
2022/08/15 01:29:26;;;;;;;9.80;4.85;;;;;;;25.00;68.41;100227.03;20972470;28;20128;-63
2022/08/15 01:40:14;;;;;;;8.20;5.03;;;;;;;24.80;69.17;100226.19;20967273;28;20051;-63
2022/08/15 01:51:02;;;;;;;8.13;5.70;;;;;;;23.65;85.01;100214.94;20987312;28;20606;-63
2022/08/15 02:01:48;;;;;;;7.75;6.07;;;;;;;22.98;91.90;100236.97;20960292;28;20044;-64
2022/08/15 02:12:19;;;;;;;8.25;6.40;;;;;;;22.67;90.52;100233.84;20986473;28;20055;-63
2022/08/15 02:23:01;;;;;;;9.80;6.38;;;;;;;22.59;92.27;100214.53;20980295;28;20033;-64
2022/08/15 02:33:23;;;;;;;10.23;6.22;;;;;;;22.67;95.38;100207.25;20961131;28;20393;-64
2022/08/15 02:43:46;;;;;;;8.38;6.57;;;;;;;22.72;93.85;100193.41;20957461;28;20037;-64
2022/08/15 02:54:12;;;;;;;8.18;6.40;;;;;;;22.68;92.98;100187.66;20956753;28;20481;-63
2022/08/15 03:04:54;;;;;;;7.63;6.22;;;;;;;22.63;92.30;100174.09;20951388;28;20041;-64
2022/08/15 03:15:16;;;;;;;7.82;6.60;;;;;;;22.53;91.84;100165.63;20956284;28;20544;-62
2022/08/15 03:25:40;;;;;;;6.57;5.95;;;;;;;22.66;87.37;100157.78;20955321;28;20036;-63
2022/08/15 03:36:18;;;;;;;8.50;6.45;;;;;;;22.63;87.84;100152.03;20956604;28;20051;-67
2022/08/15 03:46:43;;;;;;;7.78;6.20;;;;;;;22.53;87.46;100152.34;20958192;28;20074;-62
2022/08/15 03:57:06;;;;;;;10.73;6.63;;;;;;;22.56;88.38;100137.84;20958919;28;20390;-65
2022/08/15 04:07:28;;;;;;;6.32;5.38;;;;;;;22.57;84.27;100148.28;20954164;28;20056;-64
2022/08/15 04:18:01;;;;;;;8.23;6.32;;;;;;;22.66;83.56;100136.50;20953046;28;20493;-64
2022/08/15 04:28:44;;;;;;;6.50;5.90;;;;;;;22.62;84.15;100129.94;20956253;28;20052;-64
2022/08/15 04:39:15;;;;;;;7.78;6.13;;;;;;;22.66;81.54;100120.56;20952399;28;20091;-64
2022/08/15 04:49:38;;;;;;;8.10;5.93;;;;;;;22.69;82.81;100136.13;20941949;28;20098;-64
2022/08/15 04:59:59;;;;;;;7.55;5.68;;;;;;;22.86;80.13;100153.41;20943528;28;20040;-63
2022/08/15 05:10:26;;;;;;;8.90;5.53;;;;;;;22.57;80.71;100158.91;20954208;28;20147;-63
2022/08/15 05:20:55;;;;;;;10.40;5.00;;;;;;;23.07;74.93;100155.25;20953150;28;20072;-64
2022/08/15 05:31:20;;;;;;;7.95;5.30;;;;;;;22.72;81.56;100138.38;20946854;28;20040;-63
2022/08/15 05:42:01;;;;;;;13.10;5.68;;;;;;;22.82;80.77;100144.19;20958572;28;20481;-64
2022/08/15 05:53:14;;;;;;;7.90;5.40;;;;;;;23.27;79.93;100135.72;20956912;28;20054;-63
2022/08/15 06:03:38;;;;;;;8.68;5.30;;;;;;;23.57;77.66;100137.09;20977977;28;20048;-63
2022/08/15 06:14:28;;;;;;;6.50;5.57;;;;;;;23.68;78.38;100132.00;20959698;28;20060;-63
2022/08/15 06:25:03;;;;;;;9.15;5.10;;;;;;;23.87;75.62;100141.94;20954996;28;20127;-63
2022/08/15 06:35:35;;;;;;;6.85;5.10;;;;;;;23.91;76.04;100161.00;20975888;28;20073;-63
2022/08/15 06:46:01;;;;;;;9.60;4.97;;;;;;;24.16;70.22;100180.78;20943890;28;20039;-63
2022/08/15 06:56:56;;;;;;;5.60;5.07;;;;;;;23.96;74.90;100147.91;20962696;28;20048;-64
2022/08/15 07:07:47;;;;;;;6.55;5.05;;;;;;;24.05;74.16;100157.34;20958309;28;20416;-63
2022/08/15 07:18:37;;;;;;;8.80;6.20;;;;;;;23.67;82.44;100151.66;20972687;28;20052;-64
2022/08/15 07:29:07;;;;;;;8.98;6.25;;;;;;;23.82;79.11;100141.72;20953579;28;20037;-63
2022/08/15 07:39:43;;;;;;;12.30;7.22;;;;;;;23.89;81.42;100147.06;20952918;28;20686;-63
2022/08/15 07:50:10;;;;;;;8.40;6.50;;;;;;;23.66;82.75;100138.56;20953938;28;20051;-61
2022/08/15 08:00:38;;;;;;;6.72;5.63;;;;;;;24.02;79.65;100150.59;20942570;28;20504;-61
2022/08/15 08:11:44;;;;;;;7.10;6.30;;;;;;;24.63;75.66;100158.28;20949804;28;20047;-61
2022/08/15 08:22:23;;;;;;;8.60;5.80;;;;;;;24.77;75.05;100175.94;20954691;28;20041;-61
2022/08/15 08:32:59;;;;;;;8.65;5.82;;;;;;;24.75;75.54;100169.97;20965774;28;20055;-63
2022/08/15 08:43:40;;;;;;;10.07;6.22;;;;;;;25.05;74.11;100162.38;20950655;28;20046;-63
2022/08/15 08:54:15;;;;;;;8.80;5.90;;;;;;;25.20;73.44;100168.34;20942887;28;20083;-63
2022/08/15 09:05:01;;;;;;;9.40;5.95;;;;;;;25.59;71.72;100158.38;20962189;28;20109;-62
2022/08/15 09:15:29;;;;;;;8.35;5.80;;;;;;;26.01;70.08;100160.47;20958285;28;20524;-63
2022/08/15 09:26:19;;;;;;;6.38;5.47;;;;;;;26.34;68.27;100165.38;20962425;28;20059;-62
2022/08/15 09:37:05;;;;;;;10.70;5.95;;;;;;;26.68;66.96;100169.53;20959123;28;20066;-62
2022/08/15 09:48:04;;;;;;;12.63;5.57;;;;;;;26.62;65.59;100154.31;20967311;28;20132;-63
2022/08/15 09:58:35;;;;;;;7.80;5.53;;;;;;;27.44;64.43;100144.91;20974116;28;20040;-63
2022/08/15 10:09:01;;;;;;;6.35;4.97;;;;;;;27.43;63.91;100137.91;20956313;28;20053;-64
2022/08/15 10:19:37;;;;;;;10.45;5.47;;;;;;;27.50;61.57;100122.59;20963573;28;20044;-64
2022/08/15 10:30:20;;;;;;;5.78;5.20;;;;;;;28.31;59.82;100131.84;20959085;28;20094;-63
2022/08/15 10:41:26;;;;;;;9.93;5.90;;;;;;;29.03;55.24;100122.38;20964852;28;20048;-64
2022/08/15 10:52:07;;;;;;;5.75;5.15;;;;;;;29.05;55.44;100109.53;20957651;28;20515;-64
2022/08/15 11:02:43;;;;;;;10.77;5.70;;;;;;;29.69;50.56;100112.00;20960638;28;20526;-65
2022/08/15 11:13:28;;;;;;;7.90;4.93;;;;;;;30.12;49.62;100112.31;20955122;28;20048;-64
2022/08/15 11:23:56;;;;;;;8.82;5.35;;;;;;;30.58;46.04;100105.56;20960551;28;20060;-63
2022/08/15 11:34:21;;;;;;;5.25;4.55;;;;;;;31.01;45.53;100103.00;20957217;28;20052;-63
2022/08/15 11:45:00;;;;;;;7.53;5.35;;;;;;;31.01;45.00;100097.59;20962579;28;20045;-64
2022/08/15 11:55:42;;;;;;;5.88;4.75;;;;;;;31.43;43.42;100090.66;20959089;28;20053;-64
2022/08/15 12:06:30;;;;;;;5.60;4.60;;;;;;;31.33;44.71;100068.97;20950505;28;20041;-65
2022/08/15 12:17:05;;;;;;;10.85;4.57;;;;;;;31.38;42.68;100076.28;20962844;28;20041;-65
2022/08/15 12:27:37;;;;;;;7.00;4.70;;;;;;;30.40;47.64;100075.38;20954760;28;20078;-65
2022/08/15 12:37:58;;;;;;;5.35;4.55;;;;;;;30.95;45.26;100055.53;20944453;28;20051;-65
2022/08/15 12:48:27;;;;;;;5.55;4.63;;;;;;;30.53;45.97;100057.06;20942011;28;20084;-67
2022/08/15 12:58:57;;;;;;;6.97;4.70;;;;;;;30.28;45.37;100050.44;20949592;28;20493;-66
2022/08/15 13:09:27;;;;;;;5.18;4.53;;;;;;;30.05;47.32;100047.06;20949310;28;21647;-67
2022/08/15 13:30:31;;;;;;;8.15;5.32;;;;;;;27.90;54.98;100075.50;20950804;28;20071;-66
2022/08/15 13:40:58;;;;;;;5.70;4.00;;;;;;;26.43;59.29;100107.16;20964211;28;20044;-64
2022/08/15 13:51:30;;;;;;;4.40;4.00;;;;;;;25.17;66.06;100150.91;20946948;28;20045;-63
2022/08/15 14:02:14;;;;;;;4.68;3.30;;;;;;;24.60;68.64;100126.69;20947525;28;20101;-63
2022/08/15 14:12:56;;;;;;;5.90;4.45;;;;;;;24.80;69.14;100122.19;20948723;28;20047;-65
2022/08/15 14:23:19;;;;;;;5.13;4.43;;;;;;;24.77;69.97;100117.25;20946550;28;20047;-64
2022/08/15 14:33:44;;;;;;;7.20;5.10;;;;;;;24.69;72.09;100114.81;20950207;28;20094;-65
2022/08/15 14:44:25;;;;;;;6.90;5.90;;;;;;;24.30;80.93;100129.13;20948977;28;20056;-65
2022/08/15 14:55:08;;;;;;;7.25;5.88;;;;;;;24.45;78.09;100142.06;20944729;28;20049;-68
2022/08/15 15:05:31;;;;;;;8.38;6.35;;;;;;;24.92;77.49;100109.84;20928855;28;20072;-66
2022/08/15 15:16:14;;;;;;;8.35;7.43;;;;;;;25.85;75.16;100123.56;20945323;28;20576;-65
2022/08/15 15:26:55;;;;;;;15.15;9.02;;;;;;;26.33;72.27;100132.72;20936526;28;20051;-64
2022/08/15 15:37:17;;;;;;;14.10;7.47;;;;;;;26.21;71.57;100137.09;20931947;28;20051;-67
2022/08/15 15:47:43;;;;;;;14.52;7.72;;;;;;;26.43;69.78;100144.59;20930752;28;20044;-67
2022/08/15 15:58:23;;;;;;;14.75;7.15;;;;;;;26.43;68.97;100145.44;20941275;28;20036;-68
2022/08/15 16:09:05;;;;;;;10.02;7.70;;;;;;;26.66;68.43;100137.63;20941762;28;20052;-65
2022/08/15 16:19:37;;;;;;;9.95;8.32;;;;;;;26.00;72.72;100153.50;20941504;28;20048;-67
2022/08/15 16:30:10;;;;;;;8.07;6.80;;;;;;;25.94;71.65;100154.34;20959845;28;20048;-66
2022/08/15 16:41:06;;;;;;;9.70;6.25;;;;;;;25.55;70.82;100157.16;20940810;28;20480;-64
2022/08/15 16:51:44;;;;;;;8.65;5.38;;;;;;;25.58;70.64;100170.09;20948879;28;20509;-66
2022/08/15 17:02:35;;;;;;;6.38;5.70;;;;;;;25.52;72.79;100197.63;20954258;28;20067;-68
2022/08/15 17:13:38;;;;;;;7.18;5.85;;;;;;;25.50;72.83;100189.00;20934338;28;20051;-64
2022/08/15 17:24:42;;;;;;;7.07;6.38;;;;;;;25.65;69.97;100192.22;20941194;28;20045;-66
2022/08/15 17:35:22;;;;;;;7.85;6.55;;;;;;;25.57;70.85;100195.16;20938342;28;20052;-65
2022/08/15 17:45:47;;;;;;;7.20;6.13;;;;;;;25.42;74.24;100195.38;20953414;28;20041;-65
2022/08/15 17:56:24;;;;;;;12.25;7.60;;;;;;;24.65;84.82;100188.25;20960777;28;20060;-66
2022/08/15 18:06:47;;;;;;;10.02;7.78;;;;;;;24.36;93.18;100188.59;20954451;28;20037;-64
2022/08/15 18:17:25;;;;;;;8.40;7.47;;;;;;;24.33;92.27;100187.34;20955627;28;20037;-63
2022/08/15 18:27:48;;;;;;;12.10;9.27;;;;;;;24.53;89.96;100202.38;20962369;28;20075;-64
2022/08/15 18:38:20;;;;;;;9.88;8.95;;;;;;;24.37;90.11;100200.88;20965438;28;20067;-65
2022/08/15 18:48:56;;;;;;;10.57;9.20;;;;;;;24.30;92.23;100198.44;20962152;28;20105;-64
2022/08/15 18:59:21;;;;;;;13.63;8.98;;;;;;;24.09;92.42;100209.22;20963065;28;20051;-65
2022/08/15 19:09:59;;;;;;;13.27;8.48;;;;;;;24.15;92.09;100211.09;20958924;28;20045;-64
2022/08/15 19:20:21;;;;;;;10.48;8.93;;;;;;;24.01;93.87;100226.19;20936357;28;20413;-64
2022/08/15 19:30:59;;;;;;;10.98;9.70;;;;;;;24.29;93.67;100242.88;20951645;28;20072;-64
2022/08/15 19:41:36;;;;;;;11.75;10.07;;;;;;;24.14;94.55;100242.22;20953769;28;20681;-64
2022/08/15 19:52:07;;;;;;;14.93;10.40;;;;;;;24.08;92.79;100243.03;20959289;28;20043;-64
2022/08/15 20:02:41;;;;;;;11.27;10.13;;;;;;;24.05;92.24;100263.91;20958301;28;20120;-64
2022/08/15 20:13:31;;;;;;;15.25;9.65;;;;;;;24.02;91.86;100258.97;20949782;28;20102;-63
2022/08/15 20:24:23;;;;;;;14.35;10.52;;;;;;;23.81;91.54;100256.44;20952552;28;20127;-62
2022/08/15 20:35:31;;;;;;;11.93;10.73;;;;;;;23.90;90.55;100297.84;20939153;28;20151;-65
2022/08/15 20:46:04;;;;;;;13.50;10.27;;;;;;;23.50;90.67;100285.28;20967228;28;20044;-65
2022/08/15 20:56:35;;;;;;;12.90;9.95;;;;;;;23.49;87.56;100294.28;20950636;28;20052;-64
2022/08/15 21:07:03;;;;;;;14.82;9.68;;;;;;;23.00;90.18;100298.75;20952060;28;20496;-64
2022/08/15 21:17:36;;;;;;;13.02;11.52;;;;;;;23.04;88.10;100305.34;20971360;28;20048;-65
2022/08/15 21:28:27;;;;;;;13.10;10.57;;;;;;;22.93;90.15;100313.84;20965166;28;20102;-64
2022/08/15 21:39:01;;;;;;;12.60;10.23;;;;;;;22.80;90.70;100319.03;20986563;28;20056;-64
2022/08/15 21:49:32;;;;;;;11.43;9.60;;;;;;;22.78;89.91;100325.53;20969906;28;20056;-63
2022/08/15 22:00:23;;;;;;;11.40;10.23;;;;;;;22.67;91.25;100334.00;20963307;28;20041;-64
2022/08/15 22:10:47;;;;;;;10.50;9.25;;;;;;;22.44;92.46;100338.66;20968676;28;20124;-64
2022/08/15 22:21:15;;;;;;;11.65;8.18;;;;;;;22.12;92.38;100339.03;20973758;28;20104;-64
2022/08/15 22:31:39;;;;;;;9.10;7.22;;;;;;;22.26;90.87;100350.66;20966463;28;20143;-64
2022/08/15 22:42:31;;;;;;;7.45;6.00;;;;;;;22.34;88.37;100364.66;20958876;28;20041;-64
2022/08/15 22:52:56;;;;;;;8.27;6.32;;;;;;;22.10;88.17;100362.28;20964412;28;20441;-63
2022/08/15 23:03:23;;;;;;;7.97;5.60;;;;;;;21.81;90.42;100362.25;20962027;28;20059;-64
2022/08/15 23:14:15;;;;;;;7.20;6.07;;;;;;;22.14;89.22;100357.41;20963291;28;20405;-64
2022/08/15 23:24:44;;;;;;;6.57;5.57;;;;;;;21.98;89.59;100363.75;20952138;28;20040;-64
2022/08/15 23:35:12;;;;;;;7.53;5.95;;;;;;;21.92;91.33;100363.66;20972532;28;20075;-64
2022/08/15 23:45:37;;;;;;;7.40;5.70;;;;;;;21.86;90.44;100356.41;20970077;28;20033;-63
2022/08/15 23:56:07;;;;;;;6.45;5.65;;;;;;;21.80;90.81;100367.78;20950847;28;20075;-63
